createdAt,value
2022-10-18T00:02:26.457Z,25.30
2022-10-18T00:04:53.161Z,16.73
2022-10-18T00:07:19.704Z,18.87
2022-10-18T00:09:46.218Z,19.27
2022-10-18T00:12:12.753Z,19.73
2022-10-18T00:14:39.199Z,18.77
2022-10-18T00:17:05.717Z,16.17
2022-10-18T00:19:32.317Z,16.47
2022-10-18T00:21:58.731Z,18.77
2022-10-18T00:24:25.521Z,19.27
2022-10-18T00:26:52.000Z,19.53
2022-10-18T00:29:18.635Z,18.90
2022-10-18T00:31:45.228Z,20.33
2022-10-18T00:34:13.921Z,15.97
2022-10-18T00:36:41.430Z,19.23
2022-10-18T00:39:09.567Z,19.17
2022-10-18T00:41:37.889Z,18.67
2022-10-18T00:44:27.120Z,18.87
2022-10-18T00:46:57.008Z,19.03
2022-10-18T00:49:31.102Z,18.50
2022-10-18T00:52:07.222Z,17.67
2022-10-18T00:54:43.467Z,18.83
2022-10-18T00:57:10.409Z,16.03
2022-10-18T00:59:37.279Z,15.40
2022-10-18T01:02:04.589Z,15.03
2022-10-18T01:04:34.029Z,17.70
2022-10-18T01:07:06.820Z,15.20
2022-10-18T01:09:55.152Z,14.90
2022-10-18T01:12:33.171Z,15.20
2022-10-18T01:15:16.898Z,19.30
2022-10-18T01:18:03.862Z,14.93
2022-10-18T01:20:55.273Z,15.00
2022-10-18T01:23:47.731Z,16.10
2022-10-18T01:26:19.973Z,16.63
2022-10-18T01:29:15.208Z,17.43
2022-10-18T01:31:48.043Z,15.07
2022-10-18T01:34:17.271Z,15.80
2022-10-18T01:36:47.213Z,13.90
2022-10-18T01:39:17.017Z,19.47
2022-10-18T01:41:44.691Z,12.87
2022-10-18T01:44:14.380Z,14.57
2022-10-18T01:46:41.411Z,14.30
2022-10-18T01:49:08.044Z,12.63
2022-10-18T01:51:35.238Z,12.47
2022-10-18T01:54:02.248Z,11.03
2022-10-18T01:56:38.091Z,14.27
2022-10-18T01:59:04.654Z,16.20
2022-10-18T02:01:39.508Z,12.03
2022-10-18T02:04:44.081Z,14.10
2022-10-18T02:07:43.689Z,17.33
2022-10-18T02:10:11.553Z,12.03
2022-10-18T02:12:40.822Z,12.97
2022-10-18T02:15:08.101Z,14.73
2022-10-18T02:17:34.700Z,16.13
2022-10-18T02:20:02.603Z,11.17
2022-10-18T02:22:32.851Z,13.23
2022-10-18T02:25:02.664Z,15.10
2022-10-18T02:27:29.353Z,13.50
2022-10-18T02:29:55.996Z,11.37
2022-10-18T02:32:39.070Z,20.87
2022-10-18T02:35:11.593Z,15.63
2022-10-18T02:37:39.728Z,14.47
2022-10-18T02:40:07.937Z,13.33
2022-10-18T02:42:37.027Z,11.57
2022-10-18T02:45:05.168Z,11.77
2022-10-18T02:47:33.036Z,16.77
2022-10-18T02:49:59.831Z,10.77
2022-10-18T02:52:26.425Z,13.33
2022-10-18T02:54:52.849Z,15.83
2022-10-18T02:57:19.374Z,12.87
2022-10-18T02:59:45.901Z,16.20
2022-10-18T03:02:12.358Z,13.13
2022-10-18T03:04:38.922Z,11.40
2022-10-18T03:07:05.508Z,13.47
2022-10-18T03:09:32.728Z,13.97
2022-10-18T03:11:59.404Z,14.53
2022-10-18T03:14:25.940Z,13.60
2022-10-18T03:16:52.412Z,13.43
2022-10-18T03:19:19.084Z,14.10
2022-10-18T03:21:45.703Z,11.87
2022-10-18T03:24:12.195Z,11.57
2022-10-18T03:26:38.690Z,15.57
2022-10-18T03:29:05.484Z,13.60
2022-10-18T03:31:33.686Z,18.93
2022-10-18T03:34:00.319Z,12.23
2022-10-18T03:36:26.962Z,17.73
2022-10-18T03:38:53.428Z,17.13
2022-10-18T03:41:20.913Z,16.13
2022-10-18T03:43:47.606Z,12.93
2022-10-18T03:46:14.073Z,16.27
2022-10-18T03:48:40.725Z,15.50
2022-10-18T03:51:07.258Z,15.43
2022-10-18T03:53:33.808Z,15.27
2022-10-18T03:56:00.828Z,11.33
2022-10-18T03:58:27.437Z,14.50
2022-10-18T04:00:55.131Z,11.50
2022-10-18T04:03:22.928Z,11.40
2022-10-18T04:05:49.989Z,13.17
2022-10-18T04:08:17.039Z,11.63
2022-10-18T04:10:43.578Z,19.03
2022-10-18T04:13:10.098Z,18.10
2022-10-18T04:15:36.567Z,16.77
2022-10-18T04:18:03.149Z,13.73
2022-10-18T04:20:29.660Z,15.43
2022-10-18T04:22:57.607Z,13.87
2022-10-18T04:25:25.190Z,17.20
2022-10-18T04:27:51.804Z,15.30
2022-10-18T04:30:18.263Z,14.17
2022-10-18T04:32:44.711Z,13.90
2022-10-18T04:35:11.571Z,14.43
2022-10-18T04:37:38.032Z,17.77
2022-10-18T04:40:04.900Z,14.40
2022-10-18T04:42:32.406Z,13.87
2022-10-18T04:44:58.877Z,16.80
2022-10-18T04:47:25.317Z,23.50
2022-10-18T04:49:52.026Z,16.20
2022-10-18T04:52:18.510Z,12.63
2022-10-18T04:54:44.934Z,12.90
2022-10-18T04:57:11.433Z,14.00
2022-10-18T04:59:37.944Z,17.47
2022-10-18T05:02:04.816Z,14.53
2022-10-18T05:04:32.344Z,12.60
2022-10-18T05:06:58.861Z,15.37
2022-10-18T05:09:25.350Z,16.43
2022-10-18T05:11:51.890Z,16.57
2022-10-18T05:14:18.417Z,13.60
2022-10-18T05:16:44.851Z,18.90
2022-10-18T05:19:11.369Z,13.67
2022-10-18T05:21:37.861Z,16.43
2022-10-18T05:24:04.439Z,21.13
2022-10-18T05:26:31.307Z,11.17
2022-10-18T05:28:57.832Z,16.37
2022-10-18T05:31:24.282Z,14.03
2022-10-18T05:33:51.000Z,17.70
2022-10-18T05:36:17.435Z,18.87
2022-10-18T05:38:45.278Z,19.03
2022-10-18T05:41:12.548Z,13.83
2022-10-18T05:43:39.603Z,16.17
2022-10-18T05:46:11.905Z,17.03
2022-10-18T05:48:42.016Z,17.83
2022-10-18T05:51:08.663Z,18.73
2022-10-18T05:53:37.457Z,15.73
2022-10-18T05:56:08.560Z,16.33
2022-10-18T05:58:35.341Z,14.00
2022-10-18T06:01:03.084Z,16.07
2022-10-18T06:03:32.409Z,16.37
2022-10-18T06:06:03.826Z,20.63
2022-10-18T06:08:32.796Z,19.33
2022-10-18T06:10:59.429Z,19.90
2022-10-18T06:13:26.141Z,16.50
2022-10-18T06:15:56.980Z,20.07
2022-10-18T06:18:23.440Z,16.77
2022-10-18T06:20:49.912Z,17.73
2022-10-18T06:23:16.338Z,15.00
2022-10-18T06:25:42.790Z,24.80
2022-10-18T06:28:11.509Z,19.30
2022-10-18T06:30:38.798Z,20.50
2022-10-18T06:33:05.211Z,19.77
2022-10-18T06:35:32.647Z,20.63
2022-10-18T06:37:59.063Z,18.20
2022-10-18T06:40:25.488Z,16.90
2022-10-18T06:43:00.553Z,15.93
2022-10-18T06:45:37.258Z,23.13
2022-10-18T06:48:04.000Z,14.80
2022-10-18T06:50:31.054Z,16.50
2022-10-18T06:52:58.572Z,22.03
2022-10-18T06:55:25.276Z,16.10
2022-10-18T06:57:53.365Z,17.73
2022-10-18T07:00:20.123Z,18.03
2022-10-18T07:02:46.743Z,19.87
2022-10-18T07:05:13.513Z,19.30
2022-10-18T07:07:40.124Z,19.40
2022-10-18T07:10:07.412Z,18.43
2022-10-18T07:12:34.293Z,20.57
2022-10-18T07:15:01.931Z,22.70
2022-10-18T07:17:30.717Z,24.97
2022-10-18T07:19:57.784Z,20.93
2022-10-18T07:22:29.429Z,16.47
2022-10-18T07:24:56.916Z,11.60
2022-10-18T07:27:23.433Z,14.83
2022-10-18T07:29:50.156Z,15.57
2022-10-18T07:32:16.660Z,15.50
2022-10-18T07:34:43.143Z,14.50
2022-10-18T07:37:10.225Z,15.87
2022-10-18T07:39:36.819Z,14.73
2022-10-18T07:42:03.371Z,15.87
2022-10-18T07:44:29.930Z,20.87
2022-10-18T07:46:56.561Z,12.80
2022-10-18T07:49:23.131Z,14.80
2022-10-18T07:51:49.559Z,15.03
2022-10-18T07:54:16.086Z,18.73
2022-10-18T07:56:42.782Z,16.33
2022-10-18T07:59:09.458Z,15.73
2022-10-18T08:01:36.317Z,16.53
2022-10-18T08:04:07.201Z,12.67
2022-10-18T08:06:35.028Z,22.03
2022-10-18T08:09:01.699Z,14.93
2022-10-18T08:11:28.379Z,15.20
2022-10-18T08:13:55.183Z,13.67
2022-10-18T08:16:24.680Z,18.47
2022-10-18T08:18:53.835Z,20.20
2022-10-18T08:21:21.591Z,16.10
2022-10-18T08:23:48.629Z,12.13
2022-10-18T08:26:17.824Z,15.30
2022-10-18T08:28:53.616Z,14.17
2022-10-18T08:31:25.772Z,21.50
2022-10-18T08:33:52.375Z,16.27
2022-10-18T08:36:19.524Z,16.83
2022-10-18T08:38:46.506Z,13.83
2022-10-18T08:41:33.011Z,13.93
2022-10-18T08:44:07.776Z,15.70
2022-10-18T08:46:36.470Z,15.33
2022-10-18T08:49:03.872Z,20.60
2022-10-18T08:51:37.878Z,17.93
2022-10-18T08:54:12.564Z,15.43
2022-10-18T08:56:41.069Z,17.70
2022-10-18T08:59:12.280Z,21.40
2022-10-18T09:02:12.729Z,18.97
2022-10-18T09:04:58.560Z,19.93
2022-10-18T09:07:56.870Z,18.53
2022-10-18T09:10:35.561Z,16.07
2022-10-18T09:13:26.954Z,21.37
2022-10-18T09:16:01.631Z,24.67
2022-10-18T09:18:31.275Z,20.73
2022-10-18T09:21:22.969Z,25.63
2022-10-18T09:24:05.159Z,31.20
2022-10-18T09:26:41.026Z,29.00
2022-10-18T09:29:27.511Z,19.97
2022-10-18T09:32:04.858Z,25.83
2022-10-18T09:34:52.125Z,24.47
2022-10-18T09:37:20.160Z,24.30
2022-10-18T09:39:48.536Z,22.13
2022-10-18T09:42:26.712Z,24.60
2022-10-18T09:44:56.112Z,23.37
2022-10-18T09:47:32.904Z,25.13
2022-10-18T09:50:03.127Z,22.60
2022-10-18T09:52:43.137Z,21.33
2022-10-18T09:55:23.515Z,24.63
2022-10-18T09:57:56.742Z,24.50
2022-10-18T10:00:26.848Z,26.67
2022-10-18T10:02:53.425Z,22.60
2022-10-18T10:05:20.242Z,25.70
2022-10-18T10:07:48.510Z,26.90
2022-10-18T10:10:24.864Z,23.83
2022-10-18T10:13:17.480Z,22.00
2022-10-18T10:15:52.550Z,20.67
2022-10-18T10:18:24.481Z,21.63
2022-10-18T10:20:56.269Z,24.53
2022-10-18T10:23:28.477Z,27.67
2022-10-18T10:25:57.432Z,24.43
2022-10-18T10:28:27.369Z,25.40
2022-10-18T10:30:53.999Z,25.03
2022-10-18T10:33:35.832Z,28.27
2022-10-18T10:36:05.512Z,23.77
2022-10-18T10:38:32.971Z,24.63
2022-10-18T10:40:59.623Z,34.27
2022-10-18T10:43:44.036Z,25.93
2022-10-18T10:46:23.132Z,25.60
2022-10-18T10:48:57.071Z,25.10
2022-10-18T10:51:33.668Z,28.10
2022-10-18T10:54:22.000Z,24.53
2022-10-18T10:57:13.292Z,22.30
2022-10-18T10:59:48.924Z,27.53
2022-10-18T11:02:15.476Z,30.87
2022-10-18T11:04:42.739Z,33.37
2022-10-18T11:07:09.476Z,26.50
2022-10-18T11:09:58.557Z,26.60
2022-10-18T11:12:35.688Z,27.37
2022-10-18T11:15:14.288Z,29.50
2022-10-18T11:18:20.350Z,25.97
2022-10-18T11:20:53.532Z,27.07
2022-10-18T11:23:21.621Z,29.43
2022-10-18T11:25:58.585Z,29.33
2022-10-18T11:28:41.525Z,24.40
2022-10-18T11:31:34.204Z,29.40
2022-10-18T11:34:32.745Z,28.20
2022-10-18T11:37:28.125Z,27.73
2022-10-18T11:40:06.302Z,28.77
2022-10-18T11:43:11.494Z,32.50
2022-10-18T11:49:03.305Z,28.37
2022-10-18T11:52:08.327Z,33.13
2022-10-18T11:54:50.709Z,33.03
2022-10-18T11:57:36.030Z,27.63
2022-10-18T12:00:16.687Z,36.87
2022-10-18T12:03:03.605Z,27.77
2022-10-18T12:05:30.937Z,26.93
2022-10-18T12:08:17.534Z,29.33
2022-10-18T12:11:04.185Z,31.33
2022-10-18T12:13:44.234Z,26.20
2022-10-18T12:16:11.201Z,24.63
2022-10-18T12:18:47.335Z,31.80
2022-10-18T12:21:14.019Z,29.37
2022-10-18T12:23:53.890Z,29.60
2022-10-18T12:26:20.913Z,27.40
2022-10-18T12:29:05.423Z,27.73
2022-10-18T12:31:42.240Z,34.03
2022-10-18T12:34:28.548Z,32.43
2022-10-18T12:37:13.038Z,30.10
2022-10-18T12:39:58.458Z,31.03
2022-10-18T12:42:36.181Z,34.00
2022-10-18T12:45:19.697Z,30.73
2022-10-18T12:47:46.363Z,31.17
2022-10-18T12:50:36.209Z,29.67
2022-10-18T12:53:14.944Z,26.97
2022-10-18T12:58:15.463Z,30.63
2022-10-18T13:00:41.984Z,36.03
2022-10-18T13:03:17.792Z,30.67
2022-10-18T13:05:53.035Z,29.40
2022-10-18T13:08:30.542Z,28.80
2022-10-18T13:11:09.609Z,36.27
2022-10-18T13:14:00.703Z,28.53
2022-10-18T13:16:57.744Z,31.00
2022-10-18T13:19:58.019Z,31.80
2022-10-18T13:22:43.686Z,33.97
2022-10-18T13:25:23.500Z,31.33
2022-10-18T13:28:19.294Z,33.27
2022-10-18T13:31:03.995Z,33.13
2022-10-18T13:33:36.730Z,31.90
2022-10-18T13:36:22.993Z,33.23
2022-10-18T13:38:50.395Z,30.17
2022-10-18T13:41:20.270Z,33.07
2022-10-18T13:43:52.905Z,33.77
2022-10-18T13:46:45.325Z,31.67
2022-10-18T13:49:17.799Z,33.93
2022-10-18T13:52:01.876Z,29.60
2022-10-18T13:54:33.909Z,28.60
2022-10-18T13:57:29.627Z,28.70
2022-10-18T14:00:22.707Z,26.97
2022-10-18T14:03:51.815Z,28.20
2022-10-18T14:06:19.309Z,34.90
2022-10-18T14:09:14.073Z,29.73
2022-10-18T14:12:14.808Z,33.17
2022-10-18T14:14:44.381Z,26.83
2022-10-18T14:17:15.411Z,27.10
2022-10-18T14:19:50.991Z,28.07
2022-10-18T14:22:40.896Z,30.60
2022-10-18T14:25:36.024Z,29.20
2022-10-18T14:28:31.497Z,29.53
2022-10-18T14:31:14.145Z,29.87
2022-10-18T14:33:47.398Z,29.60
2022-10-18T14:36:16.197Z,30.93
2022-10-18T14:38:59.743Z,35.00
2022-10-18T14:41:38.510Z,29.83
2022-10-18T14:44:14.219Z,33.10
2022-10-18T14:46:46.119Z,35.17
2022-10-18T14:49:13.892Z,30.67
2022-10-18T14:51:42.757Z,31.10
2022-10-18T14:54:29.156Z,38.40
2022-10-18T14:56:59.518Z,33.60
2022-10-18T14:59:32.505Z,34.13
2022-10-18T15:02:02.548Z,28.47
2022-10-18T15:04:35.548Z,29.23
2022-10-18T15:07:06.847Z,21.73
2022-10-18T15:09:35.512Z,17.90
2022-10-18T15:12:06.033Z,22.20
2022-10-18T15:14:33.144Z,14.83
2022-10-18T15:17:03.599Z,15.27
2022-10-18T15:19:35.892Z,9.83
2022-10-18T15:22:30.618Z,11.17
2022-10-18T15:25:05.998Z,7.27
2022-10-18T15:27:35.754Z,7.00
2022-10-18T15:30:14.867Z,6.57
2022-10-18T15:32:48.881Z,9.30
2022-10-18T15:35:26.315Z,5.27
2022-10-18T15:37:54.054Z,7.83
2022-10-18T15:40:23.401Z,8.70
2022-10-18T15:43:00.770Z,11.83
2022-10-18T15:45:32.544Z,16.27
2022-10-18T15:48:01.929Z,12.47
2022-10-18T15:50:42.205Z,18.33
2022-10-18T15:53:21.345Z,11.77
2022-10-18T15:55:49.099Z,15.50
2022-10-18T15:58:26.085Z,13.13
2022-10-18T16:00:56.824Z,13.73
2022-10-18T16:03:24.267Z,19.00
2022-10-18T16:06:07.902Z,21.20
2022-10-18T16:08:41.009Z,19.13
2022-10-18T16:11:12.552Z,25.87
2022-10-18T16:13:39.011Z,24.83
2022-10-18T16:16:05.782Z,23.53
2022-10-18T16:18:33.401Z,20.23
2022-10-18T16:21:01.902Z,17.13
2022-10-18T16:23:29.555Z,19.50
2022-10-18T16:25:56.250Z,20.27
2022-10-18T16:28:24.745Z,21.80
2022-10-18T16:31:01.650Z,23.23
2022-10-18T16:33:28.244Z,21.07
2022-10-18T16:35:54.752Z,21.80
2022-10-18T16:38:34.227Z,24.23
2022-10-18T16:41:04.050Z,23.33
2022-10-18T16:43:32.453Z,28.13
2022-10-18T16:45:58.931Z,26.40
2022-10-18T16:48:25.613Z,26.67
2022-10-18T16:50:54.114Z,31.87
2022-10-18T16:53:23.497Z,66.57
2022-10-18T16:55:55.676Z,86.83
2022-10-18T17:00:50.730Z,56.97
2022-10-18T17:03:17.311Z,43.00
2022-10-18T17:05:44.263Z,57.17
2022-10-18T17:08:22.030Z,35.43
2022-10-18T17:10:49.878Z,45.80
2022-10-18T17:13:16.735Z,37.67
2022-10-18T17:15:43.826Z,40.43
2022-10-18T17:18:12.750Z,46.00
2022-10-18T17:20:39.796Z,46.90
2022-10-18T17:23:06.320Z,36.37
2022-10-18T17:25:33.105Z,37.77
2022-10-18T17:27:59.726Z,38.37
2022-10-18T17:30:26.381Z,28.63
2022-10-18T17:32:53.907Z,29.70
2022-10-18T17:35:22.573Z,20.63
2022-10-18T17:37:50.001Z,16.10
2022-10-18T17:40:16.755Z,17.83
2022-10-18T17:42:43.210Z,15.53
2022-10-18T17:45:10.577Z,13.70
2022-10-18T17:47:37.007Z,16.20
2022-10-18T17:50:03.862Z,20.73
2022-10-18T17:52:31.064Z,14.93
2022-10-18T17:54:57.506Z,16.67
2022-10-18T17:57:24.000Z,14.43
2022-10-18T17:59:50.996Z,20.80
2022-10-18T18:02:17.456Z,30.80
2022-10-18T18:04:44.020Z,29.53
2022-10-18T18:07:10.720Z,24.30
2022-10-18T18:09:37.223Z,21.90
2022-10-18T18:12:03.919Z,16.93
2022-10-18T18:14:32.024Z,17.50
2022-10-18T18:17:01.281Z,15.67
2022-10-18T18:19:28.174Z,19.40
2022-10-18T18:21:55.085Z,16.67
2022-10-18T18:24:24.751Z,13.67
2022-10-18T18:26:53.766Z,18.37
2022-10-18T18:29:25.215Z,17.93
2022-10-18T18:31:52.132Z,26.47
2022-10-18T18:34:20.690Z,34.47
2022-10-18T18:36:47.818Z,21.83
2022-10-18T18:39:23.306Z,16.83
2022-10-18T18:41:51.044Z,19.77
2022-10-18T18:44:19.136Z,16.87
2022-10-18T18:46:45.587Z,19.70
2022-10-18T18:49:12.895Z,48.93
2022-10-18T18:51:40.903Z,43.63
2022-10-18T18:54:08.501Z,57.30
2022-10-18T18:56:35.251Z,69.33
2022-10-18T18:59:02.001Z,45.57
2022-10-18T19:01:31.490Z,34.63
2022-10-18T19:03:58.697Z,28.10
2022-10-18T19:06:31.412Z,26.30
2022-10-18T19:09:02.951Z,38.57
2022-10-18T19:11:33.656Z,44.53
2022-10-18T19:14:00.812Z,24.83
2022-10-18T19:16:29.952Z,22.63
2022-10-18T19:19:00.728Z,22.77
2022-10-18T19:21:31.380Z,22.53
2022-10-18T19:23:58.338Z,20.53
2022-10-18T19:26:31.394Z,21.27
2022-10-18T19:29:10.873Z,20.47
2022-10-18T19:31:37.980Z,18.30
2022-10-18T19:34:06.470Z,19.07
2022-10-18T19:36:33.152Z,25.93
2022-10-18T19:38:59.958Z,18.27
2022-10-18T19:41:28.244Z,24.17
2022-10-18T19:43:55.809Z,21.13
2022-10-18T19:46:22.926Z,20.10
2022-10-18T19:48:49.486Z,21.50
2022-10-18T19:51:20.230Z,25.03
2022-10-18T19:53:49.354Z,18.83
2022-10-18T19:56:22.270Z,21.67
2022-10-18T19:58:49.519Z,22.13
2022-10-18T20:01:16.627Z,22.90
2022-10-18T20:03:44.413Z,22.37
2022-10-18T20:06:10.876Z,22.40
2022-10-18T20:08:37.953Z,23.70
2022-10-18T20:11:12.888Z,21.27
2022-10-18T20:13:39.696Z,25.93
2022-10-18T20:16:07.568Z,27.97
2022-10-18T20:18:33.967Z,25.37
2022-10-18T20:21:00.654Z,28.63
2022-10-18T20:23:27.107Z,21.87
2022-10-18T20:26:16.726Z,24.60
2022-10-18T20:28:47.996Z,18.00
2022-10-18T20:31:17.918Z,22.37
2022-10-18T20:33:45.937Z,25.93
2022-10-18T20:36:17.499Z,20.83
2022-10-18T20:38:45.547Z,21.53
2022-10-18T20:41:17.404Z,19.63
2022-10-18T20:43:44.353Z,24.07
2022-10-18T20:46:11.298Z,22.00
2022-10-18T20:48:38.904Z,24.37
2022-10-18T20:51:05.947Z,21.43
2022-10-18T20:53:32.809Z,20.23
2022-10-18T20:56:07.633Z,25.17
2022-10-18T20:58:34.588Z,24.63
2022-10-18T21:01:15.480Z,28.93
2022-10-18T21:03:43.925Z,31.00
2022-10-18T21:06:34.051Z,34.00
2022-10-18T21:09:03.565Z,39.80
2022-10-18T21:11:32.078Z,32.70
2022-10-18T21:14:02.442Z,33.27
2022-10-18T21:16:31.453Z,43.83
2022-10-18T21:19:13.093Z,39.67
2022-10-18T21:21:41.244Z,45.60
2022-10-18T21:24:08.017Z,39.30
2022-10-18T21:26:35.273Z,46.57
2022-10-18T21:29:02.101Z,44.03
2022-10-18T21:31:32.875Z,48.77
2022-10-18T21:34:01.245Z,54.20
2022-10-18T21:36:31.378Z,42.83
2022-10-18T21:38:57.835Z,58.63
2022-10-18T21:41:24.634Z,52.27
2022-10-18T21:43:53.017Z,50.73
2022-10-18T21:46:21.168Z,57.40
2022-10-18T21:48:50.075Z,53.33
2022-10-18T21:51:18.139Z,59.73
2022-10-18T21:53:46.842Z,54.63
2022-10-18T21:56:18.204Z,55.53
2022-10-18T21:58:45.094Z,56.33
2022-10-18T22:01:17.895Z,53.30
2022-10-18T22:03:44.872Z,61.20
2022-10-18T22:06:16.751Z,51.90
2022-10-18T22:08:45.056Z,52.37
2022-10-18T22:11:12.872Z,52.50
2022-10-18T22:13:39.942Z,60.77
2022-10-18T22:16:07.597Z,49.07
2022-10-18T22:18:34.390Z,59.00
2022-10-18T22:21:02.956Z,53.47
2022-10-18T22:23:33.101Z,55.93
2022-10-18T22:26:11.385Z,54.13
2022-10-18T22:28:42.060Z,61.30
2022-10-18T22:31:19.154Z,63.23
2022-10-18T22:33:46.203Z,60.90
2022-10-18T22:36:13.283Z,55.00
2022-10-18T22:38:40.291Z,56.50
2022-10-18T22:41:11.455Z,51.03
2022-10-18T22:43:38.495Z,55.63
2022-10-18T22:46:07.942Z,55.53
2022-10-18T22:48:35.069Z,55.77
2022-10-18T22:51:02.071Z,55.53
2022-10-18T22:53:29.121Z,54.57
2022-10-18T22:55:55.840Z,53.73
2022-10-18T22:58:22.992Z,52.47
2022-10-18T23:00:49.746Z,49.00
2022-10-18T23:03:17.188Z,50.90
2022-10-18T23:05:45.541Z,51.27
2022-10-18T23:08:13.445Z,53.27
2022-10-18T23:10:41.267Z,56.40
2022-10-18T23:13:08.872Z,55.43
2022-10-18T23:15:35.537Z,58.17
2022-10-18T23:18:02.199Z,56.53
2022-10-18T23:20:28.786Z,51.27
2022-10-18T23:22:55.289Z,50.20
2022-10-18T23:25:22.541Z,46.10
2022-10-18T23:27:48.973Z,52.20
2022-10-18T23:30:16.599Z,51.77
2022-10-18T23:32:43.180Z,49.27
2022-10-18T23:35:09.881Z,54.70
2022-10-18T23:37:36.951Z,48.37
2022-10-18T23:40:04.022Z,48.03
2022-10-18T23:42:31.089Z,46.57
2022-10-18T23:44:57.599Z,51.90
2022-10-18T23:47:24.259Z,44.60
2022-10-18T23:49:50.851Z,42.97
2022-10-18T23:52:17.336Z,44.80
2022-10-18T23:57:15.362Z,57.73
2022-10-18T23:59:41.877Z,47.67
